Terminal Aerodrome Forecast
Issued by NWS Duluth, MN

Home | Current Version | Previous Version | Text Only | Print | Product List | Glossary On
Versions: 1 2 3 4 5 6 7 8 9 10 11 12 13 14 15 16 17 18 19 20 21 22 23 24 25 26
000
FTUS43 KDLH 190200 AAA
TAFINL
TAF AMD
KINL 190224Z 1902/1924 36006KT P6SM OVC010
     FM190700 00000KT 3/4SM BR OVC002
     FM190900 36003KT 2SM BR OVC006
     FM191600 35003KT P6SM VCSH OVC045
     FM192100 03003KT P6SM SCT045=

USA.gov is the U.S. government's official web portal to all federal, state and local government web resources and services.